sensor_id;sensor_type;location;lat;lon;timestamp;pressure;altitude;pressure_sealevel;temperature;humidity
498;BME280;39559;48.630;9.162;2023-01-26T00:01:14;97982.94;;;-0.52;100.00
498;BME280;39559;48.630;9.162;2023-01-26T00:03:40;97982.09;;;-0.52;100.00
498;BME280;39559;48.630;9.162;2023-01-26T00:08:04;97974.22;;;-0.75;100.00
498;BME280;39559;48.630;9.162;2023-01-26T00:10:29;97969.19;;;-0.68;100.00
498;BME280;39559;48.630;9.162;2023-01-26T00:12:55;97970.97;;;-0.59;100.00
498;BME280;39559;48.630;9.162;2023-01-26T00:15:21;97969.31;;;-0.55;100.00
498;BME280;39559;48.630;9.162;2023-01-26T00:17:46;97959.13;;;-0.52;100.00
498;BME280;39559;48.630;9.162;2023-01-26T00:20:12;97964.25;;;-0.51;100.00
498;BME280;39559;48.630;9.162;2023-01-26T00:22:37;97957.44;;;-0.52;100.00
498;BME280;39559;48.630;9.162;2023-01-26T00:25:03;97953.09;;;-0.61;100.00
498;BME280;39559;48.630;9.162;2023-01-26T00:27:31;97948.69;;;-0.79;100.00
498;BME280;39559;48.630;9.162;2023-01-26T00:32:03;97934.03;;;-1.00;100.00
498;BME280;39559;48.630;9.162;2023-01-26T00:34:29;97928.94;;;-0.97;100.00
498;BME280;39559;48.630;9.162;2023-01-26T00:36:54;97928.88;;;-1.04;100.00
498;BME280;39559;48.630;9.162;2023-01-26T00:39:20;97925.53;;;-1.02;100.00
498;BME280;39559;48.630;9.162;2023-01-26T00:41:45;97911.91;;;-1.02;100.00
498;BME280;39559;48.630;9.162;2023-01-26T00:44:29;97911.00;;;-1.06;100.00
498;BME280;39559;48.630;9.162;2023-01-26T00:46:55;97904.16;;;-1.11;100.00
498;BME280;39559;48.630;9.162;2023-01-26T00:49:20;97905.88;;;-1.10;100.00
498;BME280;39559;48.630;9.162;2023-01-26T00:51:45;97904.19;;;-1.10;100.00
498;BME280;39559;48.630;9.162;2023-01-26T00:56:06;97912.72;;;-1.05;100.00
498;BME280;39559;48.630;9.162;2023-01-26T00:58:32;97902.56;;;-1.00;100.00
498;BME280;39559;48.630;9.162;2023-01-26T01:00:57;97893.28;;;-0.98;100.00
498;BME280;39559;48.630;9.162;2023-01-26T01:03:23;97896.50;;;-1.13;100.00
498;BME280;39559;48.630;9.162;2023-01-26T01:05:51;97890.69;;;-1.01;100.00
498;BME280;39559;48.630;9.162;2023-01-26T01:08:18;97895.59;;;-1.17;100.00
498;BME280;39559;48.630;9.162;2023-01-26T01:10:44;97894.03;;;-1.04;100.00
498;BME280;39559;48.630;9.162;2023-01-26T01:13:11;97898.44;;;-0.89;100.00
498;BME280;39559;48.630;9.162;2023-01-26T01:15:38;97904.44;;;-0.84;100.00
498;BME280;39559;48.630;9.162;2023-01-26T01:20:10;97890.84;;;-0.84;100.00
498;BME280;39559;48.630;9.162;2023-01-26T01:22:36;97888.34;;;-0.78;100.00
498;BME280;39559;48.630;9.162;2023-01-26T01:25:01;97894.38;;;-0.70;100.00
498;BME280;39559;48.630;9.162;2023-01-26T01:27:27;97895.38;;;-0.48;100.00
498;BME280;39559;48.630;9.162;2023-01-26T01:29:53;97901.28;;;-0.58;100.00
498;BME280;39559;48.630;9.162;2023-01-26T01:32:19;97893.56;;;-0.67;100.00
498;BME280;39559;48.630;9.162;2023-01-26T01:34:48;97890.91;;;-0.75;100.00
498;BME280;39559;48.630;9.162;2023-01-26T01:37:15;97888.41;;;-0.72;100.00
498;BME280;39559;48.630;9.162;2023-01-26T01:39:40;97887.56;;;-0.69;100.00
498;BME280;39559;48.630;9.162;2023-01-26T01:44:19;97878.03;;;-0.92;100.00
498;BME280;39559;48.630;9.162;2023-01-26T01:46:58;97883.69;;;-1.21;100.00
498;BME280;39559;48.630;9.162;2023-01-26T01:49:27;97882.03;;;-1.16;100.00
498;BME280;39559;48.630;9.162;2023-01-26T01:52:19;97879.53;;;-1.12;100.00
498;BME280;39559;48.630;9.162;2023-01-26T01:57:20;97877.19;;;-0.91;100.00
498;BME280;39559;48.630;9.162;2023-01-26T02:00:08;97875.50;;;-0.86;100.00
498;BME280;39559;48.630;9.162;2023-01-26T02:02:35;97869.63;;;-0.82;100.00
498;BME280;39559;48.630;9.162;2023-01-26T02:05:32;97868.72;;;-0.84;100.00
498;BME280;39559;48.630;9.162;2023-01-26T02:08:12;97871.38;;;-0.74;100.00
498;BME280;39559;48.630;9.162;2023-01-26T02:10:39;97861.91;;;-0.88;100.00
498;BME280;39559;48.630;9.162;2023-01-26T02:13:06;97861.06;;;-0.87;100.00
498;BME280;39559;48.630;9.162;2023-01-26T02:15:32;97861.16;;;-0.78;100.00
498;BME280;39559;48.630;9.162;2023-01-26T02:18:01;97858.47;;;-0.91;100.00
498;BME280;39559;48.630;9.162;2023-01-26T02:20:40;97848.28;;;-0.94;100.00
498;BME280;39559;48.630;9.162;2023-01-26T02:23:26;97848.28;;;-0.91;100.00
498;BME280;39559;48.630;9.162;2023-01-26T02:26:01;97849.09;;;-0.95;100.00
498;BME280;39559;48.630;9.162;2023-01-26T02:28:28;97854.22;;;-0.94;100.00
498;BME280;39559;48.630;9.162;2023-01-26T02:32:13;97849.81;;;-1.10;100.00
498;BME280;39559;48.630;9.162;2023-01-26T02:34:38;97841.31;;;-1.12;100.00
498;BME280;39559;48.630;9.162;2023-01-26T02:37:04;97843.72;;;-1.26;100.00
498;BME280;39559;48.630;9.162;2023-01-26T02:39:51;97847.88;;;-1.33;100.00
498;BME280;39559;48.630;9.162;2023-01-26T02:42:19;97843.75;;;-1.23;100.00
498;BME280;39559;48.630;9.162;2023-01-26T02:45:14;97841.41;;;-1.00;100.00
498;BME280;39559;48.630;9.162;2023-01-26T02:47:40;97833.75;;;-1.02;100.00
498;BME280;39559;48.630;9.162;2023-01-26T02:50:07;97841.44;;;-0.97;100.00
498;BME280;39559;48.630;9.162;2023-01-26T02:52:33;97839.84;;;-0.83;100.00
498;BME280;39559;48.630;9.162;2023-01-26T02:56:14;97830.44;;;-0.90;100.00
498;BME280;39559;48.630;9.162;2023-01-26T02:58:40;97835.63;;;-0.81;100.00
498;BME280;39559;48.630;9.162;2023-01-26T03:01:05;97828.84;;;-0.77;100.00
498;BME280;39559;48.630;9.162;2023-01-26T03:03:31;97833.81;;;-0.95;100.00
498;BME280;39559;48.630;9.162;2023-01-26T03:06:11;97834.63;;;-0.98;100.00
498;BME280;39559;48.630;9.162;2023-01-26T03:08:37;97829.38;;;-1.18;100.00
498;BME280;39559;48.630;9.162;2023-01-26T03:11:04;97829.25;;;-1.29;100.00
498;BME280;39559;48.630;9.162;2023-01-26T03:13:30;97821.63;;;-1.27;100.00
498;BME280;39559;48.630;9.162;2023-01-26T03:15:56;97821.63;;;-1.26;100.00
498;BME280;39559;48.630;9.162;2023-01-26T03:20:14;97814.28;;;-0.92;100.00
498;BME280;39559;48.630;9.162;2023-01-26T03:23:12;97809.22;;;-0.89;100.00
498;BME280;39559;48.630;9.162;2023-01-26T03:25:56;97811.06;;;-0.69;100.00
498;BME280;39559;48.630;9.162;2023-01-26T03:29:00;97802.44;;;-0.84;100.00
498;BME280;39559;48.630;9.162;2023-01-26T03:31:25;97804.28;;;-0.67;100.00
498;BME280;39559;48.630;9.162;2023-01-26T03:33:51;97793.09;;;-0.86;100.00
498;BME280;39559;48.630;9.162;2023-01-26T03:36:16;97798.09;;;-0.97;100.00
498;BME280;39559;48.630;9.162;2023-01-26T03:38:42;97794.84;;;-0.78;100.00
498;BME280;39559;48.630;9.162;2023-01-26T03:41:07;97794.78;;;-0.84;100.00
498;BME280;39559;48.630;9.162;2023-01-26T03:44:18;97785.41;;;-0.88;100.00
498;BME280;39559;48.630;9.162;2023-01-26T03:47:01;97788.88;;;-0.81;100.00
498;BME280;39559;48.630;9.162;2023-01-26T03:49:45;97782.75;;;-1.00;100.00
498;BME280;39559;48.630;9.162;2023-01-26T03:52:32;97792.03;;;-1.11;100.00
498;BME280;39559;48.630;9.162;2023-01-26T03:55:16;97798.78;;;-1.17;100.00
498;BME280;39559;48.630;9.162;2023-01-26T03:58:01;97798.00;;;-1.09;100.00
498;BME280;39559;48.630;9.162;2023-01-26T04:00:26;97795.50;;;-1.03;100.00
498;BME280;39559;48.630;9.162;2023-01-26T04:02:52;97798.88;;;-1.04;100.00
498;BME280;39559;48.630;9.162;2023-01-26T04:05:36;97788.63;;;-1.13;100.00
498;BME280;39559;48.630;9.162;2023-01-26T04:08:19;97787.72;;;-1.17;100.00
498;BME280;39559;48.630;9.162;2023-01-26T04:10:52;97794.63;;;-1.07;100.00
498;BME280;39559;48.630;9.162;2023-01-26T04:13:19;97800.59;;;-1.05;100.00
498;BME280;39559;48.630;9.162;2023-01-26T04:16:04;97793.88;;;-0.93;100.00
498;BME280;39559;48.630;9.162;2023-01-26T04:18:48;97802.38;;;-0.96;100.00
498;BME280;39559;48.630;9.162;2023-01-26T04:21:32;97789.63;;;-0.91;100.00
498;BME280;39559;48.630;9.162;2023-01-26T04:23:59;97795.69;;;-0.77;100.00
498;BME280;39559;48.630;9.162;2023-01-26T04:26:28;97796.63;;;-0.69;100.00
498;BME280;39559;48.630;9.162;2023-01-26T04:29:09;97789.69;;;-0.87;100.00
498;BME280;39559;48.630;9.162;2023-01-26T04:32:19;97790.44;;;-0.97;100.00
498;BME280;39559;48.630;9.162;2023-01-26T04:34:44;97781.97;;;-0.93;100.00
498;BME280;39559;48.630;9.162;2023-01-26T04:37:10;97781.19;;;-0.86;100.00
498;BME280;39559;48.630;9.162;2023-01-26T04:39:35;97779.47;;;-0.90;100.00
498;BME280;39559;48.630;9.162;2023-01-26T04:42:01;97774.31;;;-0.93;100.00
498;BME280;39559;48.630;9.162;2023-01-26T04:44:26;97781.84;;;-1.14;100.00
498;BME280;39559;48.630;9.162;2023-01-26T04:46:52;97773.59;;;-0.80;100.00
498;BME280;39559;48.630;9.162;2023-01-26T04:49:17;97764.34;;;-0.67;100.00
498;BME280;39559;48.630;9.162;2023-01-26T04:51:43;97776.94;;;-0.84;100.00
498;BME280;39559;48.630;9.162;2023-01-26T04:56:28;97760.50;;;-1.24;100.00
498;BME280;39559;48.630;9.162;2023-01-26T04:58:54;97754.69;;;-1.06;100.00
498;BME280;39559;48.630;9.162;2023-01-26T05:01:20;97758.28;;;-0.83;100.00
498;BME280;39559;48.630;9.162;2023-01-26T05:03:47;97761.69;;;-0.81;100.00
498;BME280;39559;48.630;9.162;2023-01-26T05:06:13;97760.72;;;-0.97;100.00
498;BME280;39559;48.630;9.162;2023-01-26T05:08:38;97758.97;;;-1.05;100.00
498;BME280;39559;48.630;9.162;2023-01-26T05:11:04;97760.75;;;-0.92;100.00
498;BME280;39559;48.630;9.162;2023-01-26T05:13:30;97759.88;;;-0.97;100.00
498;BME280;39559;48.630;9.162;2023-01-26T05:15:55;97763.09;;;-1.17;100.00
498;BME280;39559;48.630;9.162;2023-01-26T05:20:22;97760.72;;;-1.00;100.00
498;BME280;39559;48.630;9.162;2023-01-26T05:22:47;97760.72;;;-1.00;100.00
498;BME280;39559;48.630;9.162;2023-01-26T05:25:13;97764.97;;;-0.97;100.00
498;BME280;39559;48.630;9.162;2023-01-26T05:27:38;97755.63;;;-0.95;100.00
498;BME280;39559;48.630;9.162;2023-01-26T05:30:04;97764.13;;;-0.93;100.00
498;BME280;39559;48.630;9.162;2023-01-26T05:32:30;97761.59;;;-0.93;100.00
498;BME280;39559;48.630;9.162;2023-01-26T05:34:56;97765.75;;;-1.07;100.00
498;BME280;39559;48.630;9.162;2023-01-26T05:37:26;97766.63;;;-1.05;100.00
498;BME280;39559;48.630;9.162;2023-01-26T05:39:51;97769.16;;;-1.04;100.00
498;BME280;39559;48.630;9.162;2023-01-26T05:44:26;97774.47;;;-0.73;100.00
498;BME280;39559;48.630;9.162;2023-01-26T05:46:51;97774.38;;;-0.88;100.00
498;BME280;39559;48.630;9.162;2023-01-26T05:49:17;97773.53;;;-0.89;100.00
498;BME280;39559;48.630;9.162;2023-01-26T05:51:42;97765.16;;;-0.71;100.00
498;BME280;39559;48.630;9.162;2023-01-26T05:54:08;97775.28;;;-0.82;100.00
498;BME280;39559;48.630;9.162;2023-01-26T05:56:33;97769.28;;;-0.87;100.00
498;BME280;39559;48.630;9.162;2023-01-26T05:58:59;97775.97;;;-1.01;100.00
498;BME280;39559;48.630;9.162;2023-01-26T06:01:24;97772.41;;;-1.20;100.00
498;BME280;39559;48.630;9.162;2023-01-26T06:03:50;97772.59;;;-0.99;100.00
498;BME280;39559;48.630;9.162;2023-01-26T06:08:27;97776.09;;;-0.84;100.00
498;BME280;39559;48.630;9.162;2023-01-26T06:10:58;97778.50;;;-1.07;100.00
498;BME280;39559;48.630;9.162;2023-01-26T06:13:24;97781.94;;;-1.01;100.00
498;BME280;39559;48.630;9.162;2023-01-26T06:15:49;97780.94;;;-1.18;100.00
498;BME280;39559;48.630;9.162;2023-01-26T06:18:15;97777.63;;;-1.11;100.00
498;BME280;39559;48.630;9.162;2023-01-26T06:20:41;97781.88;;;-1.04;100.00
498;BME280;39559;48.630;9.162;2023-01-26T06:23:06;97777.50;;;-1.20;100.00
498;BME280;39559;48.630;9.162;2023-01-26T06:25:36;97779.25;;;-1.16;100.00
498;BME280;39559;48.630;9.162;2023-01-26T06:28:04;97780.94;;;-1.18;100.00
498;BME280;39559;48.630;9.162;2023-01-26T06:32:29;97783.59;;;-1.04;100.00
498;BME280;39559;48.630;9.162;2023-01-26T06:34:55;97777.56;;;-1.14;100.00
498;BME280;39559;48.630;9.162;2023-01-26T06:37:20;97784.44;;;-1.07;100.00
498;BME280;39559;48.630;9.162;2023-01-26T06:39:46;97779.34;;;-1.07;100.00
498;BME280;39559;48.630;9.162;2023-01-26T06:42:11;97785.16;;;-1.20;100.00
498;BME280;39559;48.630;9.162;2023-01-26T06:44:37;97784.28;;;-1.22;100.00
498;BME280;39559;48.630;9.162;2023-01-26T06:47:04;97780.22;;;-0.99;100.00
498;BME280;39559;48.630;9.162;2023-01-26T06:49:29;97787.66;;;-1.25;100.00
498;BME280;39559;48.630;9.162;2023-01-26T06:52:04;97781.66;;;-1.34;100.00
498;BME280;39559;48.630;9.162;2023-01-26T06:56:31;97776.78;;;-1.08;100.00
498;BME280;39559;48.630;9.162;2023-01-26T06:58:56;97774.91;;;-1.31;100.00
498;BME280;39559;48.630;9.162;2023-01-26T07:01:24;97781.72;;;-1.24;100.00
498;BME280;39559;48.630;9.162;2023-01-26T07:03:52;97780.88;;;-1.24;100.00
498;BME280;39559;48.630;9.162;2023-01-26T07:06:18;97782.53;;;-1.31;100.00
498;BME280;39559;48.630;9.162;2023-01-26T07:08:44;97779.88;;;-1.40;100.00
498;BME280;39559;48.630;9.162;2023-01-26T07:11:10;97789.19;;;-1.42;100.00
498;BME280;39559;48.630;9.162;2023-01-26T07:13:37;97788.41;;;-1.38;100.00
498;BME280;39559;48.630;9.162;2023-01-26T07:16:09;97786.63;;;-1.45;100.00
498;BME280;39559;48.630;9.162;2023-01-26T07:20:30;97794.41;;;-1.30;100.00
498;BME280;39559;48.630;9.162;2023-01-26T07:22:58;97794.38;;;-1.33;100.00
498;BME280;39559;48.630;9.162;2023-01-26T07:25:24;97792.59;;;-1.40;100.00
498;BME280;39559;48.630;9.162;2023-01-26T07:27:57;97795.31;;;-1.25;100.00
498;BME280;39559;48.630;9.162;2023-01-26T07:30:23;97792.69;;;-1.34;100.00
498;BME280;39559;48.630;9.162;2023-01-26T07:32:49;97795.28;;;-1.31;100.00
498;BME280;39559;48.630;9.162;2023-01-26T07:35:14;97804.56;;;-1.36;100.00
498;BME280;39559;48.630;9.162;2023-01-26T07:37:40;97800.25;;;-1.43;100.00
498;BME280;39559;48.630;9.162;2023-01-26T07:40:06;97805.19;;;-1.56;100.00
498;BME280;39559;48.630;9.162;2023-01-26T07:44:32;97795.19;;;-1.37;100.00
498;BME280;39559;48.630;9.162;2023-01-26T07:46:58;97797.75;;;-1.36;100.00
498;BME280;39559;48.630;9.162;2023-01-26T07:49:23;97796.75;;;-1.51;100.00
498;BME280;39559;48.630;9.162;2023-01-26T07:51:49;97797.66;;;-1.46;100.00
498;BME280;39559;48.630;9.162;2023-01-26T07:54:16;97806.13;;;-1.46;100.00
498;BME280;39559;48.630;9.162;2023-01-26T07:56:42;97800.09;;;-1.57;100.00
498;BME280;39559;48.630;9.162;2023-01-26T07:59:10;97799.25;;;-1.58;100.00
498;BME280;39559;48.630;9.162;2023-01-26T08:01:35;97804.44;;;-1.47;100.00
498;BME280;39559;48.630;9.162;2023-01-26T08:04:01;97801.94;;;-1.42;100.00
498;BME280;39559;48.630;9.162;2023-01-26T08:08:35;97795.16;;;-1.40;100.00
498;BME280;39559;48.630;9.162;2023-01-26T08:11:01;97796.88;;;-1.39;100.00
498;BME280;39559;48.630;9.162;2023-01-26T08:13:27;97797.72;;;-1.42;100.00
498;BME280;39559;48.630;9.162;2023-01-26T08:15:53;97797.00;;;-1.24;100.00
498;BME280;39559;48.630;9.162;2023-01-26T08:18:19;97794.19;;;-1.51;100.00
498;BME280;39559;48.630;9.162;2023-01-26T08:20:52;97796.72;;;-1.53;100.00
498;BME280;39559;48.630;9.162;2023-01-26T08:23:18;97795.22;;;-1.34;100.00
498;BME280;39559;48.630;9.162;2023-01-26T08:25:44;97799.50;;;-1.31;100.00
498;BME280;39559;48.630;9.162;2023-01-26T08:28:09;97792.09;;;-1.05;100.00
498;BME280;39559;48.630;9.162;2023-01-26T08:32:37;97791.88;;;-1.30;100.00
498;BME280;39559;48.630;9.162;2023-01-26T08:35:03;97798.53;;;-1.44;100.00
498;BME280;39559;48.630;9.162;2023-01-26T08:37:28;97786.63;;;-1.47;100.00
498;BME280;39559;48.630;9.162;2023-01-26T08:39:54;97796.91;;;-1.33;100.00
498;BME280;39559;48.630;9.162;2023-01-26T08:42:19;97796.81;;;-1.45;100.00
498;BME280;39559;48.630;9.162;2023-01-26T08:44:45;97793.59;;;-1.29;100.00
498;BME280;39559;48.630;9.162;2023-01-26T08:47:10;97794.34;;;-1.38;100.00
498;BME280;39559;48.630;9.162;2023-01-26T08:49:36;97795.22;;;-1.34;100.00
498;BME280;39559;48.630;9.162;2023-01-26T08:52:01;97789.31;;;-1.30;100.00
498;BME280;39559;48.630;9.162;2023-01-26T08:56:39;97788.63;;;-1.13;100.00
498;BME280;39559;48.630;9.162;2023-01-26T08:59:05;97787.50;;;-1.43;100.00
498;BME280;39559;48.630;9.162;2023-01-26T09:01:30;97785.81;;;-1.41;100.00
498;BME280;39559;48.630;9.162;2023-01-26T09:03:56;97785.88;;;-1.38;100.00
498;BME280;39559;48.630;9.162;2023-01-26T09:06:22;97781.72;;;-1.27;100.00
498;BME280;39559;48.630;9.162;2023-01-26T09:08:48;97778.16;;;-1.44;100.00
498;BME280;39559;48.630;9.162;2023-01-26T09:11:13;97778.19;;;-1.41;100.00
498;BME280;39559;48.630;9.162;2023-01-26T09:13:39;97782.53;;;-1.29;100.00
498;BME280;39559;48.630;9.162;2023-01-26T09:16:10;97783.41;;;-1.26;100.00
498;BME280;39559;48.630;9.162;2023-01-26T09:20:39;97786.63;;;-1.45;100.00
498;BME280;39559;48.630;9.162;2023-01-26T09:23:05;97786.66;;;-1.42;100.00
498;BME280;39559;48.630;9.162;2023-01-26T09:25:31;97786.63;;;-1.45;100.00
498;BME280;39559;48.630;9.162;2023-01-26T09:27:56;97783.31;;;-1.38;100.00
498;BME280;39559;48.630;9.162;2023-01-26T09:30:22;97792.66;;;-1.36;100.00
498;BME280;39559;48.630;9.162;2023-01-26T09:32:51;97786.63;;;-1.44;100.00
498;BME280;39559;48.630;9.162;2023-01-26T09:35:16;97784.97;;;-1.40;100.00
498;BME280;39559;48.630;9.162;2023-01-26T09:37:42;97791.13;;;-1.18;100.00
498;BME280;39559;48.630;9.162;2023-01-26T09:44:59;97799.47;;;-1.33;100.00
498;BME280;39559;48.630;9.162;2023-01-26T09:50:26;97805.28;;;-1.48;100.00
498;BME280;39559;48.630;9.162;2023-01-26T09:52:55;97805.31;;;-1.45;100.00
498;BME280;39559;48.630;9.162;2023-01-26T09:55:22;97802.94;;;-1.26;100.00
498;BME280;39559;48.630;9.162;2023-01-26T09:57:52;97802.97;;;-1.20;100.00
498;BME280;39559;48.630;9.162;2023-01-26T10:00:53;97798.78;;;-1.18;100.00
498;BME280;39559;48.630;9.162;2023-01-26T10:05:59;97796.91;;;-1.36;100.00
498;BME280;39559;48.630;9.162;2023-01-26T10:08:44;97794.38;;;-1.33;100.00
498;BME280;39559;48.630;9.162;2023-01-26T10:11:32;97787.63;;;-1.28;100.00
498;BME280;39559;48.630;9.162;2023-01-26T10:17:14;97793.63;;;-1.23;100.00
498;BME280;39559;48.630;9.162;2023-01-26T10:19:49;97796.81;;;-1.44;100.00
498;BME280;39559;48.630;9.162;2023-01-26T10:22:26;97790.00;;;-1.46;100.00
498;BME280;39559;48.630;9.162;2023-01-26T10:24:56;97790.97;;;-1.33;100.00
498;BME280;39559;48.630;9.162;2023-01-26T10:27:22;97801.16;;;-1.35;100.00
498;BME280;39559;48.630;9.162;2023-01-26T10:29:47;97792.56;;;-1.45;100.00
498;BME280;39559;48.630;9.162;2023-01-26T10:32:45;97788.38;;;-1.41;100.00
498;BME280;39559;48.630;9.162;2023-01-26T10:35:20;97788.56;;;-1.20;100.00
498;BME280;39559;48.630;9.162;2023-01-26T10:37:47;97785.00;;;-1.37;100.00
498;BME280;39559;48.630;9.162;2023-01-26T10:40:13;97789.28;;;-1.36;100.00
498;BME280;39559;48.630;9.162;2023-01-26T10:42:40;97790.25;;;-1.20;100.00
498;BME280;39559;48.630;9.162;2023-01-26T10:45:43;97792.66;;;-1.36;100.00
498;BME280;39559;48.630;9.162;2023-01-26T10:50:41;97790.13;;;-1.34;100.00
498;BME280;39559;48.630;9.162;2023-01-26T10:53:14;97790.06;;;-1.43;100.00
498;BME280;39559;48.630;9.162;2023-01-26T10:56:56;97791.69;;;-1.48;100.00
498;BME280;39559;48.630;9.162;2023-01-26T11:03:32;97793.28;;;-1.60;100.00
498;BME280;39559;48.630;9.162;2023-01-26T11:05:33;97791.47;;;-1.70;100.00
498;BME280;39559;48.630;9.162;2023-01-26T11:07:58;97788.25;;;-1.53;100.00
498;BME280;39559;48.630;9.162;2023-01-26T11:10:34;97776.38;;;-1.55;100.00
498;BME280;39559;48.630;9.162;2023-01-26T11:13:21;97789.06;;;-1.58;100.00
498;BME280;39559;48.630;9.162;2023-01-26T11:15:49;97783.91;;;-1.61;100.00
498;BME280;39559;48.630;9.162;2023-01-26T11:23:55;97777.25;;;-1.51;100.00
498;BME280;39559;48.630;9.162;2023-01-26T11:37:42;97767.09;;;-1.46;100.00
498;BME280;39559;48.630;9.162;2023-01-26T11:45:18;97759.38;;;-1.56;100.00
498;BME280;39559;48.630;9.162;2023-01-26T11:53:22;97749.94;;;-1.63;100.00
498;BME280;39559;48.630;9.162;2023-01-26T11:58:42;97749.91;;;-1.66;100.00
498;BME280;39559;48.630;9.162;2023-01-26T12:01:15;97747.31;;;-1.72;100.00
498;BME280;39559;48.630;9.162;2023-01-26T12:03:50;97749.75;;;-1.83;100.00
498;BME280;39559;48.630;9.162;2023-01-26T12:08:58;97737.88;;;-1.82;100.00
498;BME280;39559;48.630;9.162;2023-01-26T12:11:32;97737.66;;;-2.01;100.00
498;BME280;39559;48.630;9.162;2023-01-26T12:22:57;97728.63;;;-1.76;100.00
498;BME280;39559;48.630;9.162;2023-01-26T12:25:12;97718.47;;;-1.72;100.00
498;BME280;39559;48.630;9.162;2023-01-26T12:27:46;97721.66;;;-1.92;100.00
498;BME280;39559;48.630;9.162;2023-01-26T12:32:55;97719.16;;;-1.86;100.00
498;BME280;39559;48.630;9.162;2023-01-26T12:35:49;97718.53;;;-1.65;100.00
498;BME280;39559;48.630;9.162;2023-01-26T12:41:37;97704.63;;;-1.98;100.00
498;BME280;39559;48.630;9.162;2023-01-26T12:44:28;97704.69;;;-1.95;100.00
498;BME280;39559;48.630;9.162;2023-01-26T12:49:45;97696.28;;;-1.83;100.00
498;BME280;39559;48.630;9.162;2023-01-26T12:56:59;97686.22;;;-1.72;100.00
498;BME280;39559;48.630;9.162;2023-01-26T12:59:36;97692.03;;;-1.82;100.00
498;BME280;39559;48.630;9.162;2023-01-26T13:04:44;97691.97;;;-1.90;100.00
498;BME280;39559;48.630;9.162;2023-01-26T13:15:22;97694.59;;;-1.82;100.00
498;BME280;39559;48.630;9.162;2023-01-26T13:17:53;97695.41;;;-1.86;100.00
498;BME280;39559;48.630;9.162;2023-01-26T13:20:58;97703.78;;;-2.00;100.00
498;BME280;39559;48.630;9.162;2023-01-26T13:26:12;97696.16;;;-1.98;100.00
498;BME280;39559;48.630;9.162;2023-01-26T13:28:39;97690.97;;;-2.06;100.00
498;BME280;39559;48.630;9.162;2023-01-26T13:31:05;97694.44;;;-1.98;100.00
498;BME280;39559;48.630;9.162;2023-01-26T13:33:31;97693.53;;;-2.04;100.00
498;BME280;39559;48.630;9.162;2023-01-26T13:35:58;97696.16;;;-1.97;100.00
498;BME280;39559;48.630;9.162;2023-01-26T13:38:36;97682.56;;;-1.97;100.00
498;BME280;39559;48.630;9.162;2023-01-26T13:41:08;97685.13;;;-1.97;100.00
498;BME280;39559;48.630;9.162;2023-01-26T13:45:04;97689.41;;;-1.91;100.00
498;BME280;39559;48.630;9.162;2023-01-26T13:47:37;97690.38;;;-1.80;100.00
498;BME280;39559;48.630;9.162;2023-01-26T13:52:46;97688.63;;;-1.89;100.00
498;BME280;39559;48.630;9.162;2023-01-26T13:55:21;97695.38;;;-1.91;100.00
498;BME280;39559;48.630;9.162;2023-01-26T13:57:47;97690.38;;;-1.82;100.00
498;BME280;39559;48.630;9.162;2023-01-26T14:00:14;97692.03;;;-1.85;100.00
498;BME280;39559;48.630;9.162;2023-01-26T14:02:40;97691.13;;;-1.90;100.00
498;BME280;39559;48.630;9.162;2023-01-26T14:05:06;97687.84;;;-1.82;100.00
498;BME280;39559;48.630;9.162;2023-01-26T14:09:03;97686.25;;;-1.69;100.00
498;BME280;39559;48.630;9.162;2023-01-26T14:11:32;97688.66;;;-1.83;100.00
498;BME280;39559;48.630;9.162;2023-01-26T14:13:59;97682.94;;;-1.57;100.00
498;BME280;39559;48.630;9.162;2023-01-26T14:16:29;97688.81;;;-1.69;100.00
498;BME280;39559;48.630;9.162;2023-01-26T14:21:44;97696.31;;;-1.81;100.00
498;BME280;39559;48.630;9.162;2023-01-26T14:24:10;97694.63;;;-1.79;100.00
498;BME280;39559;48.630;9.162;2023-01-26T14:26:36;97697.25;;;-1.70;100.00
498;BME280;39559;48.630;9.162;2023-01-26T14:29:10;97703.19;;;-1.74;100.00
498;BME280;39559;48.630;9.162;2023-01-26T14:33:10;97702.41;;;-1.64;100.00
498;BME280;39559;48.630;9.162;2023-01-26T14:35:36;97698.28;;;-1.52;100.00
498;BME280;39559;48.630;9.162;2023-01-26T14:41:29;97699.88;;;-1.62;100.00
498;BME280;39559;48.630;9.162;2023-01-26T14:43:35;97700.59;;;-1.77;100.00
498;BME280;39559;48.630;9.162;2023-01-26T14:46:12;97707.34;;;-1.81;100.00
498;BME280;39559;48.630;9.162;2023-01-26T14:48:53;97711.63;;;-1.75;100.00
498;BME280;39559;48.630;9.162;2023-01-26T14:51:22;97713.41;;;-1.68;100.00
498;BME280;39559;48.630;9.162;2023-01-26T14:53:59;97715.97;;;-1.66;100.00
498;BME280;39559;48.630;9.162;2023-01-26T14:57:06;97712.50;;;-1.73;100.00
498;BME280;39559;48.630;9.162;2023-01-26T14:59:39;97721.91;;;-1.69;100.00
498;BME280;39559;48.630;9.162;2023-01-26T15:02:21;97716.91;;;-1.57;100.00
498;BME280;39559;48.630;9.162;2023-01-26T15:05:02;97725.19;;;-1.78;100.00
498;BME280;39559;48.630;9.162;2023-01-26T15:07:56;97728.56;;;-1.80;100.00
498;BME280;39559;48.630;9.162;2023-01-26T15:10:36;97721.69;;;-1.87;100.00
498;BME280;39559;48.630;9.162;2023-01-26T15:15:33;97721.84;;;-1.74;100.00
498;BME280;39559;48.630;9.162;2023-01-26T15:23:39;97724.16;;;-1.98;100.00
498;BME280;39559;48.630;9.162;2023-01-26T15:26:08;97728.44;;;-1.92;100.00
498;BME280;39559;48.630;9.162;2023-01-26T15:28:35;97720.66;;;-2.05;100.00
498;BME280;39559;48.630;9.162;2023-01-26T15:31:01;97723.31;;;-1.96;100.00
498;BME280;39559;48.630;9.162;2023-01-26T15:33:51;97724.16;;;-1.95;100.00
498;BME280;39559;48.630;9.162;2023-01-26T15:36:30;97729.16;;;-2.03;100.00
498;BME280;39559;48.630;9.162;2023-01-26T15:38:58;97731.78;;;-1.97;100.00
498;BME280;39559;48.630;9.162;2023-01-26T15:41:24;97728.47;;;-1.89;100.00
498;BME280;39559;48.630;9.162;2023-01-26T15:45:30;97729.97;;;-2.07;100.00
498;BME280;39559;48.630;9.162;2023-01-26T15:47:59;97731.84;;;-1.92;100.00
498;BME280;39559;48.630;9.162;2023-01-26T15:50:26;97736.25;;;-1.76;100.00
498;BME280;39559;48.630;9.162;2023-01-26T15:52:51;97730.19;;;-1.88;100.00
498;BME280;39559;48.630;9.162;2023-01-26T15:55:24;97726.56;;;-2.07;100.00
498;BME280;39559;48.630;9.162;2023-01-26T15:57:50;97733.50;;;-1.96;100.00
498;BME280;39559;48.630;9.162;2023-01-26T16:00:16;97740.44;;;-1.79;100.00